createdAt,value
2023-01-22T00:01:15.593Z,-3.57
2023-01-22T00:03:46.526Z,-3.82
2023-01-22T00:06:14.868Z,-3.55
2023-01-22T00:08:44.020Z,-3.62
2023-01-22T00:11:12.735Z,-3.58
2023-01-22T00:13:40.624Z,-3.49
2023-01-22T00:16:09.249Z,-3.59
2023-01-22T00:18:36.974Z,-3.50
2023-01-22T00:21:04.761Z,-3.40
2023-01-22T00:23:33.043Z,-3.49
2023-01-22T00:26:07.108Z,-3.56
2023-01-22T00:28:34.889Z,-3.54
2023-01-22T00:31:04.408Z,-3.50
2023-01-22T00:33:32.677Z,-3.50
2023-01-22T00:36:05.172Z,-3.60
2023-01-22T00:38:32.786Z,-4.21
2023-01-22T00:41:02.258Z,-3.75
2023-01-22T00:43:32.050Z,-3.82
2023-01-22T00:45:59.663Z,-3.69
2023-01-22T00:48:28.143Z,-3.49
2023-01-22T00:50:56.309Z,-3.50
2023-01-22T00:53:24.124Z,-3.58
2023-01-22T00:55:52.543Z,-3.63
2023-01-22T00:58:20.465Z,-3.67
2023-01-22T01:00:50.003Z,-3.59
2023-01-22T01:03:32.367Z,-3.56
2023-01-22T01:06:02.725Z,-3.61
2023-01-22T01:08:32.552Z,-3.66
2023-01-22T01:11:02.527Z,-3.58
2023-01-22T01:13:32.837Z,-3.60
2023-01-22T01:16:03.483Z,-3.57
2023-01-22T01:18:32.155Z,-3.52
2023-01-22T01:21:01.105Z,-3.62
2023-01-22T01:23:29.771Z,-3.61
2023-01-22T01:25:57.922Z,-3.54
2023-01-22T01:28:25.786Z,-3.47
2023-01-22T01:30:53.525Z,-3.40
2023-01-22T01:33:23.174Z,-3.51
2023-01-22T01:35:50.801Z,-3.56
2023-01-22T01:38:18.409Z,-3.55
2023-01-22T01:40:46.152Z,-3.57
2023-01-22T01:43:17.504Z,-3.51
2023-01-22T01:45:45.683Z,-3.47
2023-01-22T01:48:25.077Z,-3.43
2023-01-22T01:50:59.054Z,-3.46
2023-01-22T01:53:26.921Z,-3.40
2023-01-22T01:55:57.364Z,-3.50
2023-01-22T01:58:29.895Z,-3.44
2023-01-22T02:01:06.662Z,-3.43
2023-01-22T02:03:35.827Z,-3.49
2023-01-22T02:06:03.539Z,-3.52
2023-01-22T02:08:31.494Z,-3.71
2023-01-22T02:10:59.503Z,-3.56
2023-01-22T02:13:31.238Z,-3.57
2023-01-22T02:15:59.992Z,-3.55
2023-01-22T02:18:27.880Z,-3.47
2023-01-22T02:20:58.750Z,-4.54
2023-01-22T02:23:27.601Z,-3.78
2023-01-22T02:25:55.718Z,-3.52
2023-01-22T02:28:23.895Z,-3.44
2023-01-22T02:30:54.701Z,-3.51
2023-01-22T02:33:22.463Z,-3.49
2023-01-22T02:35:50.199Z,-3.67
2023-01-22T02:38:19.428Z,-3.42
2023-01-22T02:40:49.938Z,-3.50
2023-01-22T02:43:20.337Z,-3.48
2023-01-22T02:45:48.134Z,-3.48
2023-01-22T02:48:16.036Z,-3.66
2023-01-22T02:50:45.082Z,-3.63
2023-01-22T02:53:14.199Z,-3.66
2023-01-22T02:55:46.154Z,-3.67
2023-01-22T02:58:15.019Z,-3.90
2023-01-22T03:00:42.888Z,-4.23
2023-01-22T03:03:15.559Z,-3.75
2023-01-22T03:05:48.147Z,-3.66
2023-01-22T03:08:16.345Z,-3.58
2023-01-22T03:10:45.958Z,-3.47
2023-01-22T03:13:31.791Z,-3.60
2023-01-22T03:16:17.079Z,-3.70
2023-01-22T03:19:03.164Z,-3.58
2023-01-22T03:21:30.764Z,-4.09
2023-01-22T03:23:58.399Z,-3.67
2023-01-22T03:26:28.872Z,-3.79
2023-01-22T03:28:56.494Z,-3.61
2023-01-22T03:31:24.197Z,-3.61
2023-01-22T03:33:52.560Z,-3.66
2023-01-22T03:36:20.259Z,-3.65
2023-01-22T03:38:52.136Z,-3.71
2023-01-22T03:41:23.471Z,-3.65
2023-01-22T03:43:54.618Z,-3.69
2023-01-22T03:46:26.925Z,-3.64
2023-01-22T03:48:57.761Z,-3.69
2023-01-22T03:51:27.134Z,-3.65
2023-01-22T03:53:54.842Z,-3.58
2023-01-22T03:56:24.382Z,-3.64
2023-01-22T03:58:56.886Z,-3.67
2023-01-22T04:01:26.640Z,-3.67
2023-01-22T04:03:54.604Z,-3.71
2023-01-22T04:06:25.338Z,-3.69
2023-01-22T04:08:55.373Z,-3.63
2023-01-22T04:11:28.806Z,-3.76
2023-01-22T04:13:58.706Z,-3.60
2023-01-22T04:16:29.722Z,-3.66
2023-01-22T04:19:07.942Z,-3.65
2023-01-22T04:21:49.047Z,-3.68
2023-01-22T04:24:17.057Z,-3.69
2023-01-22T04:26:44.718Z,-3.65
2023-01-22T04:29:15.228Z,-3.57
2023-01-22T04:31:43.871Z,-3.64
2023-01-22T04:34:21.138Z,-3.58
2023-01-22T04:37:11.618Z,-3.62
2023-01-22T04:39:39.521Z,-3.69
2023-01-22T04:42:07.127Z,-3.61
2023-01-22T04:44:36.143Z,-3.63
2023-01-22T04:47:03.793Z,-3.69
2023-01-22T04:49:32.332Z,-3.64
2023-01-22T04:52:00.175Z,-3.65
2023-01-22T04:54:29.624Z,-3.59
2023-01-22T04:56:57.419Z,-3.62
2023-01-22T04:59:25.036Z,-3.83
2023-01-22T05:01:54.081Z,-3.78
2023-01-22T05:04:23.765Z,-4.37
2023-01-22T05:06:52.305Z,-3.66
2023-01-22T05:09:20.257Z,-3.82
2023-01-22T05:11:56.074Z,-3.66
2023-01-22T05:14:24.484Z,-3.68
2023-01-22T05:16:52.126Z,-3.67
2023-01-22T05:19:22.182Z,-3.66
2023-01-22T05:21:50.062Z,-4.51
2023-01-22T05:24:19.404Z,-3.74
2023-01-22T05:26:47.203Z,-3.72
2023-01-22T05:29:19.641Z,-3.70
2023-01-22T05:32:15.589Z,-4.00
2023-01-22T05:34:50.273Z,-3.76
2023-01-22T05:37:17.876Z,-3.83
2023-01-22T05:39:45.475Z,-3.85
2023-01-22T05:42:16.933Z,-3.99
2023-01-22T05:44:47.933Z,-3.89
2023-01-22T05:47:16.134Z,-3.87
2023-01-22T05:49:50.593Z,-3.91
2023-01-22T05:52:18.233Z,-4.51
2023-01-22T05:54:46.427Z,-4.07
2023-01-22T05:57:14.211Z,-4.01
2023-01-22T05:59:42.012Z,-3.97
2023-01-22T06:02:10.095Z,-4.00
2023-01-22T06:04:43.309Z,-4.05
2023-01-22T06:07:26.217Z,-4.12
2023-01-22T06:09:53.907Z,-4.15
2023-01-22T06:12:21.595Z,-4.15
2023-01-22T06:14:49.372Z,-4.17
2023-01-22T06:17:17.019Z,-4.46
2023-01-22T06:19:52.220Z,-4.12
2023-01-22T06:22:20.214Z,-4.02
2023-01-22T06:24:54.342Z,-4.09
2023-01-22T06:27:24.706Z,-4.14
2023-01-22T06:29:56.858Z,-4.14
2023-01-22T06:32:24.536Z,-4.27
2023-01-22T06:34:53.180Z,-4.07
2023-01-22T06:37:22.839Z,-4.12
2023-01-22T06:39:50.980Z,-4.03
2023-01-22T06:42:27.111Z,-4.07
2023-01-22T06:44:54.757Z,-4.06
2023-01-22T06:47:25.708Z,-4.03
2023-01-22T06:49:53.311Z,-3.98
2023-01-22T06:52:21.091Z,-3.98
2023-01-22T06:54:48.864Z,-3.97
2023-01-22T06:57:16.834Z,-3.92
2023-01-22T06:59:45.897Z,-3.91
2023-01-22T07:02:17.449Z,-3.84
2023-01-22T07:04:45.515Z,-3.83
2023-01-22T07:07:13.403Z,-3.82
2023-01-22T07:09:41.552Z,-3.84
2023-01-22T07:12:09.425Z,-3.87
2023-01-22T07:14:37.865Z,-3.85
2023-01-22T07:17:07.099Z,-3.86
2023-01-22T07:19:34.714Z,-3.81
2023-01-22T07:22:02.337Z,-3.89
2023-01-22T07:24:29.938Z,-3.88
2023-01-22T07:26:57.541Z,-3.88
2023-01-22T07:29:25.191Z,-3.88
2023-01-22T07:31:52.955Z,-3.73
2023-01-22T07:34:22.100Z,-3.83
2023-01-22T07:36:49.798Z,-3.83
2023-01-22T07:39:17.575Z,-3.75
2023-01-22T07:41:45.188Z,-3.69
2023-01-22T07:44:13.252Z,-3.74
2023-01-22T07:46:40.899Z,-3.84
2023-01-22T07:49:08.515Z,-3.79
2023-01-22T07:51:37.621Z,-3.79
2023-01-22T07:54:05.280Z,-3.80
2023-01-22T07:56:32.969Z,-3.89
2023-01-22T07:59:00.671Z,-3.76
2023-01-22T08:01:28.355Z,-4.15
2023-01-22T08:03:57.162Z,-3.64
2023-01-22T08:06:25.007Z,-3.70
2023-01-22T08:08:54.137Z,-3.71
2023-01-22T08:11:21.938Z,-3.56
2023-01-22T08:13:49.671Z,-3.64
2023-01-22T08:16:17.420Z,-3.70
2023-01-22T08:18:47.247Z,-3.66
2023-01-22T08:21:14.844Z,-3.77
2023-01-22T08:23:46.175Z,-4.31
2023-01-22T08:26:16.751Z,-3.75
2023-01-22T08:28:44.337Z,-3.76
2023-01-22T08:31:26.379Z,-3.74
2023-01-22T08:33:55.348Z,-3.55
2023-01-22T08:36:23.021Z,-3.63
2023-01-22T08:38:50.616Z,-3.69
2023-01-22T08:41:19.731Z,-3.68
2023-01-22T08:43:47.305Z,-3.66
2023-01-22T08:46:15.084Z,-3.62
2023-01-22T08:48:44.143Z,-3.59
2023-01-22T08:51:12.201Z,-3.52
2023-01-22T08:53:40.140Z,-3.56
2023-01-22T08:56:08.569Z,-3.45
2023-01-22T08:58:37.542Z,-3.61
2023-01-22T09:01:05.574Z,-3.47
2023-01-22T09:03:33.281Z,-3.42
2023-01-22T09:06:00.884Z,-3.42
2023-01-22T09:08:28.570Z,-3.31
2023-01-22T09:10:56.141Z,-3.26
2023-01-22T09:13:23.736Z,-3.49
2023-01-22T09:15:52.794Z,-3.30
2023-01-22T09:18:20.385Z,-3.30
2023-01-22T09:20:48.020Z,-3.33
2023-01-22T09:23:15.929Z,-3.44
2023-01-22T09:25:43.765Z,-3.19
2023-01-22T09:28:12.334Z,-3.24
2023-01-22T09:30:41.670Z,-3.10
2023-01-22T09:33:11.053Z,-3.26
2023-01-22T09:35:38.775Z,-3.33
2023-01-22T09:38:06.571Z,-3.22
2023-01-22T09:40:41.872Z,-3.13
2023-01-22T09:43:24.768Z,-3.16
2023-01-22T09:45:55.792Z,-3.14
2023-01-22T09:48:34.523Z,-3.05
2023-01-22T09:51:02.500Z,-3.08
2023-01-22T09:53:31.279Z,-3.04
2023-01-22T09:55:59.653Z,-3.34
2023-01-22T09:58:27.933Z,-2.91
2023-01-22T10:01:00.189Z,-2.74
2023-01-22T10:03:34.163Z,-2.49
2023-01-22T10:06:05.718Z,-2.60
2023-01-22T10:08:38.824Z,-2.59
2023-01-22T10:11:09.890Z,-2.61
2023-01-22T10:13:39.511Z,-2.61
2023-01-22T10:16:08.033Z,-2.56
2023-01-22T10:18:41.939Z,-2.56
2023-01-22T10:21:18.536Z,-2.74
2023-01-22T10:23:47.065Z,-2.63
2023-01-22T10:26:17.915Z,-2.80
2023-01-22T10:28:46.871Z,-2.86
2023-01-22T10:31:24.562Z,-3.07
2023-01-22T10:33:58.763Z,-2.80
2023-01-22T10:36:27.280Z,-2.91
2023-01-22T10:39:04.978Z,-2.86
2023-01-22T10:41:32.841Z,-2.77
2023-01-22T10:44:10.487Z,-2.83
2023-01-22T10:46:38.101Z,-2.75
2023-01-22T10:49:08.341Z,-2.82
2023-01-22T10:51:38.556Z,-3.10
2023-01-22T10:54:19.367Z,-3.31
2023-01-22T10:56:47.307Z,-2.95
2023-01-22T10:59:23.031Z,-2.92
2023-01-22T11:01:57.522Z,-2.96
2023-01-22T11:04:28.558Z,-2.88
2023-01-22T11:07:01.407Z,-2.86
2023-01-22T11:09:35.101Z,-2.82
2023-01-22T11:12:12.045Z,-2.72
2023-01-22T11:14:40.476Z,-2.97
2023-01-22T11:17:15.588Z,-2.71
2023-01-22T11:19:51.345Z,-2.56
2023-01-22T11:22:27.395Z,-2.45
2023-01-22T11:24:55.449Z,-2.43
2023-01-22T11:27:50.195Z,-2.48
2023-01-22T11:30:38.293Z,-2.53
2023-01-22T11:33:14.566Z,-2.62
2023-01-22T11:35:52.196Z,-2.25
2023-01-22T11:38:29.437Z,-2.51
2023-01-22T11:41:09.533Z,-2.44
2023-01-22T11:43:55.461Z,-2.60
2023-01-22T11:46:37.173Z,-2.47
2023-01-22T11:49:14.323Z,-2.55
2023-01-22T11:51:56.003Z,-2.87
2023-01-22T11:54:45.982Z,-2.61
2023-01-22T11:57:20.289Z,-3.41
2023-01-22T12:00:14.720Z,-2.47
2023-01-22T12:03:17.403Z,-2.49
2023-01-22T12:05:49.024Z,-2.38
2023-01-22T12:08:41.089Z,-2.29
2023-01-22T12:11:24.208Z,-2.35
2023-01-22T12:14:26.026Z,-2.33
2023-01-22T12:17:02.824Z,-2.31
2023-01-22T12:19:53.753Z,-2.28
2023-01-22T12:22:43.202Z,-2.25
2023-01-22T12:25:19.015Z,-2.28
2023-01-22T12:27:53.227Z,-2.27
2023-01-22T12:30:24.598Z,-2.28
2023-01-22T12:32:56.707Z,-2.24
2023-01-22T12:35:25.877Z,-2.28
2023-01-22T12:38:02.597Z,-2.18
2023-01-22T12:40:57.449Z,-2.30
2023-01-22T12:43:35.036Z,-2.56
2023-01-22T12:46:10.207Z,-2.24
2023-01-22T12:48:47.067Z,-2.46
2023-01-22T12:51:27.091Z,-2.13
2023-01-22T12:53:54.975Z,-2.08
2023-01-22T12:56:33.889Z,-2.16
2023-01-22T12:59:01.671Z,-2.17
2023-01-22T13:01:35.653Z,-2.23
2023-01-22T13:04:06.666Z,-2.30
2023-01-22T13:06:36.413Z,-2.41
2023-01-22T13:09:05.325Z,-2.31
2023-01-22T13:11:36.744Z,-2.35
2023-01-22T13:14:20.096Z,-2.37
2023-01-22T13:16:53.859Z,-2.61
2023-01-22T13:19:24.033Z,-2.24
2023-01-22T13:21:52.727Z,-2.26
2023-01-22T13:24:22.016Z,-2.74
2023-01-22T13:26:57.008Z,-2.32
2023-01-22T13:29:28.540Z,-2.69
2023-01-22T13:31:57.874Z,-2.13
2023-01-22T13:34:26.453Z,-2.11
2023-01-22T13:36:55.427Z,-2.36
2023-01-22T13:39:28.347Z,-2.37
2023-01-22T13:41:59.613Z,-2.27
2023-01-22T13:44:32.646Z,-2.27
2023-01-22T13:47:00.627Z,-2.32
2023-01-22T13:49:29.714Z,-2.30
2023-01-22T13:52:00.225Z,-2.20
2023-01-22T13:54:31.719Z,-2.29
2023-01-22T13:57:00.774Z,-2.64
2023-01-22T13:59:34.860Z,-2.34
2023-01-22T14:02:13.624Z,-3.16
2023-01-22T14:04:41.492Z,-2.25
2023-01-22T14:07:09.791Z,-2.30
2023-01-22T14:09:40.435Z,-2.30
2023-01-22T14:12:18.377Z,-2.41
2023-01-22T14:14:46.307Z,-2.58
2023-01-22T14:17:25.622Z,-2.44
2023-01-22T14:19:56.571Z,-2.30
2023-01-22T14:22:24.575Z,-2.29
2023-01-22T14:24:52.891Z,-2.72
2023-01-22T14:27:22.613Z,-2.28
2023-01-22T14:29:50.518Z,-2.14
2023-01-22T14:32:18.132Z,-2.24
2023-01-22T14:34:45.756Z,-2.32
2023-01-22T14:37:16.401Z,-2.38
2023-01-22T14:39:44.063Z,-2.38
2023-01-22T14:42:12.522Z,-3.10
2023-01-22T14:44:41.481Z,-3.16
2023-01-22T14:47:09.103Z,-2.39
2023-01-22T14:49:36.723Z,-2.39
2023-01-22T14:52:04.571Z,-2.41
2023-01-22T14:54:32.185Z,-2.49
2023-01-22T14:57:03.169Z,-2.45
2023-01-22T14:59:30.971Z,-2.73
2023-01-22T15:02:00.358Z,-2.47
2023-01-22T15:04:28.141Z,-2.45
2023-01-22T15:06:55.824Z,-2.48
2023-01-22T15:09:23.485Z,-2.66
2023-01-22T15:11:51.170Z,-3.32
2023-01-22T15:14:18.783Z,-2.83
2023-01-22T15:16:46.481Z,-2.46
2023-01-22T15:19:18.300Z,-2.53
2023-01-22T15:21:46.300Z,-2.44
2023-01-22T15:24:14.055Z,-2.62
2023-01-22T15:26:41.748Z,-2.51
2023-01-22T15:29:11.216Z,-2.76
2023-01-22T15:31:39.565Z,-2.62
2023-01-22T15:34:08.721Z,-2.49
2023-01-22T15:36:40.431Z,-2.67
2023-01-22T15:39:08.465Z,-2.60
2023-01-22T15:41:37.819Z,-3.34
2023-01-22T15:44:06.821Z,-2.66
2023-01-22T15:46:36.573Z,-2.58
2023-01-22T15:49:06.271Z,-2.65
2023-01-22T15:51:33.868Z,-2.71
2023-01-22T15:54:05.196Z,-2.75
2023-01-22T15:56:34.712Z,-2.72
2023-01-22T15:59:02.999Z,-2.76
2023-01-22T16:01:31.236Z,-2.79
2023-01-22T16:04:00.786Z,-2.79
2023-01-22T16:06:30.120Z,-2.83
2023-01-22T16:09:00.324Z,-2.88
2023-01-22T16:11:30.901Z,-2.86
2023-01-22T16:13:59.111Z,-2.86
2023-01-22T16:16:30.290Z,-2.89
2023-01-22T16:18:59.179Z,-2.92
2023-01-22T16:21:27.003Z,-2.90
2023-01-22T16:23:56.587Z,-2.95
2023-01-22T16:26:26.731Z,-2.97
2023-01-22T16:28:58.093Z,-2.97
2023-01-22T16:31:44.795Z,-2.98
2023-01-22T16:34:14.513Z,-3.17
2023-01-22T16:36:43.670Z,-2.99
2023-01-22T16:39:18.210Z,-3.01
2023-01-22T16:41:48.411Z,-2.93
2023-01-22T16:44:19.019Z,-2.97
2023-01-22T16:46:49.393Z,-3.01
2023-01-22T16:49:20.019Z,-3.18
2023-01-22T16:51:49.122Z,-3.07
2023-01-22T16:54:20.899Z,-3.07
2023-01-22T16:56:49.290Z,-4.00
2023-01-22T16:59:18.406Z,-3.41
2023-01-22T17:01:46.664Z,-3.90
2023-01-22T17:04:14.998Z,-3.14
2023-01-22T17:06:45.284Z,-3.29
2023-01-22T17:09:16.403Z,-4.03
2023-01-22T17:11:46.291Z,-3.34
2023-01-22T17:14:14.289Z,-3.16
2023-01-22T17:16:43.473Z,-3.20
2023-01-22T17:19:11.213Z,-3.19
2023-01-22T17:21:38.903Z,-3.21
2023-01-22T17:24:07.165Z,-3.07
2023-01-22T17:26:34.774Z,-3.09
2023-01-22T17:29:02.430Z,-3.42
2023-01-22T17:31:31.322Z,-3.30
2023-01-22T17:34:00.430Z,-3.41
2023-01-22T17:36:29.591Z,-3.42
2023-01-22T17:38:57.822Z,-3.42
2023-01-22T17:41:26.955Z,-4.35
2023-01-22T17:43:55.950Z,-4.49
2023-01-22T17:46:25.593Z,-3.52
2023-01-22T17:48:54.204Z,-3.49
2023-01-22T17:51:25.500Z,-3.48
2023-01-22T17:53:55.431Z,-3.52
2023-01-22T17:56:25.971Z,-3.64
2023-01-22T17:58:55.125Z,-3.72
2023-01-22T18:01:27.876Z,-3.72
2023-01-22T18:03:57.117Z,-3.76
2023-01-22T18:06:26.536Z,-3.78
2023-01-22T18:08:54.891Z,-4.61
2023-01-22T18:11:27.521Z,-3.82
2023-01-22T18:13:56.601Z,-3.86
2023-01-22T18:16:24.918Z,-3.88
2023-01-22T18:18:53.271Z,-3.88
2023-01-22T18:21:21.970Z,-3.86
2023-01-22T18:23:51.503Z,-3.86
2023-01-22T18:26:22.894Z,-3.98
2023-01-22T18:28:50.877Z,-4.13
2023-01-22T18:31:21.376Z,-3.88
2023-01-22T18:33:49.394Z,-3.94
2023-01-22T18:36:19.554Z,-3.90
2023-01-22T18:38:47.528Z,-3.87
2023-01-22T18:41:21.038Z,-3.87
2023-01-22T18:43:50.475Z,-3.88
2023-01-22T18:46:19.923Z,-3.84
2023-01-22T18:48:47.604Z,-4.33
2023-01-22T18:51:15.255Z,-4.01
2023-01-22T18:53:43.353Z,-4.19
2023-01-22T18:56:12.569Z,-3.90
2023-01-22T18:58:44.384Z,-3.90
2023-01-22T19:01:14.734Z,-3.90
2023-01-22T19:03:44.052Z,-3.92
2023-01-22T19:06:15.993Z,-4.28
2023-01-22T19:08:45.011Z,-4.17
2023-01-22T19:11:14.246Z,-4.04
2023-01-22T19:13:44.841Z,-4.01
2023-01-22T19:16:14.409Z,-3.96
2023-01-22T19:18:43.886Z,-4.02
2023-01-22T19:21:13.489Z,-3.94
2023-01-22T19:23:45.465Z,-3.90
2023-01-22T19:26:17.689Z,-3.92
2023-01-22T19:28:46.879Z,-3.92
2023-01-22T19:31:19.044Z,-3.90
2023-01-22T19:33:46.915Z,-3.87
2023-01-22T19:36:15.055Z,-3.94
2023-01-22T19:38:43.053Z,-4.23
2023-01-22T19:41:10.719Z,-3.97
2023-01-22T19:43:39.012Z,-4.65
2023-01-22T19:46:09.975Z,-3.98
2023-01-22T19:48:38.481Z,-4.03
2023-01-22T19:51:08.866Z,-4.09
2023-01-22T19:53:37.276Z,-4.12
2023-01-22T19:56:06.478Z,-4.18
2023-01-22T19:58:34.100Z,-4.23
2023-01-22T20:01:01.964Z,-4.28
2023-01-22T20:03:31.107Z,-4.32
2023-01-22T20:05:58.711Z,-4.36
2023-01-22T20:08:26.328Z,-4.44
2023-01-22T20:10:59.186Z,-4.48
2023-01-22T20:13:27.612Z,-4.51
2023-01-22T20:15:55.351Z,-4.58
2023-01-22T20:18:23.773Z,-4.69
2023-01-22T20:20:54.886Z,-4.70
2023-01-22T20:23:23.335Z,-4.80
2023-01-22T20:25:51.667Z,-4.84
2023-01-22T20:28:20.590Z,-5.21
2023-01-22T20:30:58.110Z,-4.84
2023-01-22T20:33:26.198Z,-4.89
2023-01-22T20:35:57.877Z,-4.91
2023-01-22T20:38:26.158Z,-4.89
2023-01-22T20:40:54.133Z,-4.92
2023-01-22T20:43:22.043Z,-4.92
2023-01-22T20:46:00.072Z,-5.07
2023-01-22T20:48:28.096Z,-4.88
2023-01-22T20:50:57.123Z,-4.84
2023-01-22T20:53:25.371Z,-5.02
2023-01-22T20:56:00.331Z,-4.89
2023-01-22T20:58:28.547Z,-4.89
2023-01-22T21:00:56.466Z,-4.88
2023-01-22T21:03:25.151Z,-4.87
2023-01-22T21:05:52.753Z,-4.90
2023-01-22T21:08:21.713Z,-4.89
2023-01-22T21:10:57.066Z,-4.89
2023-01-22T21:13:24.721Z,-4.96
2023-01-22T21:15:53.760Z,-5.40
2023-01-22T21:18:22.657Z,-5.03
2023-01-22T21:20:51.046Z,-5.20
2023-01-22T21:23:18.762Z,-5.12
2023-01-22T21:25:47.702Z,-5.15
2023-01-22T21:28:15.654Z,-5.22
2023-01-22T21:30:43.438Z,-5.34
2023-01-22T21:33:11.110Z,-5.35
2023-01-22T21:35:38.713Z,-5.41
2023-01-22T21:38:06.332Z,-5.41
2023-01-22T21:40:33.968Z,-5.44
2023-01-22T21:43:20.406Z,-5.50
2023-01-22T21:46:05.566Z,-5.49
2023-01-22T21:48:33.345Z,-5.62
2023-01-22T21:51:02.890Z,-5.58
2023-01-22T21:53:30.528Z,-5.47
2023-01-22T21:55:58.358Z,-5.47
2023-01-22T21:58:27.326Z,-5.48
2023-01-22T22:00:55.641Z,-5.97
2023-01-22T22:03:24.323Z,-5.70
2023-01-22T22:05:56.523Z,-5.48
2023-01-22T22:08:24.149Z,-5.49
2023-01-22T22:10:52.822Z,-5.69
2023-01-22T22:13:20.800Z,-5.59
2023-01-22T22:15:50.206Z,-5.61
2023-01-22T22:18:17.842Z,-5.64
2023-01-22T22:20:45.455Z,-5.61
2023-01-22T22:23:13.060Z,-5.60
2023-01-22T22:25:40.676Z,-5.60
2023-01-22T22:28:08.270Z,-5.68
2023-01-22T22:30:35.893Z,-5.44
2023-01-22T22:33:04.968Z,-5.44
2023-01-22T22:35:32.759Z,-5.42
2023-01-22T22:38:00.392Z,-5.55
2023-01-22T22:40:28.025Z,-5.38
2023-01-22T22:42:55.677Z,-5.29
2023-01-22T22:45:23.442Z,-5.48
2023-01-22T22:47:51.053Z,-5.22
2023-01-22T22:50:20.406Z,-5.20
2023-01-22T22:52:48.307Z,-5.18
2023-01-22T22:55:16.176Z,-5.15
2023-01-22T22:57:43.786Z,-5.14
2023-01-22T23:00:14.483Z,-5.13
2023-01-22T23:02:42.611Z,-5.10
2023-01-22T23:05:10.615Z,-5.10
2023-01-22T23:07:39.585Z,-5.12
2023-01-22T23:10:28.366Z,-5.12
2023-01-22T23:12:58.211Z,-5.20
2023-01-22T23:15:27.465Z,-5.05
2023-01-22T23:17:56.324Z,-5.16
2023-01-22T23:20:25.097Z,-5.02
2023-01-22T23:22:56.688Z,-5.01
2023-01-22T23:25:25.035Z,-5.00
2023-01-22T23:27:52.873Z,-5.01
2023-01-22T23:30:20.879Z,-4.98
2023-01-22T23:32:48.633Z,-5.25
2023-01-22T23:35:16.362Z,-5.17
2023-01-22T23:37:44.029Z,-5.19
2023-01-22T23:40:13.861Z,-4.99
2023-01-22T23:42:41.498Z,-4.98
2023-01-22T23:45:11.930Z,-5.49
2023-01-22T23:47:39.693Z,-5.66
2023-01-22T23:50:08.629Z,-4.95
2023-01-22T23:52:36.294Z,-4.92
2023-01-22T23:55:04.259Z,-4.87
2023-01-22T23:57:33.291Z,-4.81
